Time;durP1;ratioP1;P1;durP2;ratioP2;P2;SDS_P1;SDS_P2;PMS_P1;PMS_P2;Temp;Humidity;BMP_temperature;BMP_pressure;BME280_temperature;BME280_humidity;BME280_pressure;Samples;Min_cycle;Max_cycle;Signal;HPM_P1;HPM_P2
2023/05/25 00:00:58;;;;;;;15.68;7.43;;;;;;;8.73;82.67;102051.16;5064686;28;20041;-58
2023/05/25 00:03:29;;;;;;;16.60;7.95;;;;;;;8.74;82.91;102059.94;5065131;28;20457;-59
2023/05/25 00:05:57;;;;;;;20.73;6.97;;;;;;;8.67;83.41;102059.16;5055680;28;20099;-60
2023/05/25 00:08:24;;;;;;;15.85;6.70;;;;;;;8.69;83.05;102059.13;5065669;28;20067;-58
2023/05/25 00:10:50;;;;;;;22.00;7.47;;;;;;;8.69;83.25;102060.00;5072137;28;20393;-58
2023/05/25 00:13:17;;;;;;;13.82;7.70;;;;;;;8.66;82.61;102061.81;5068484;28;20045;-58
2023/05/25 00:15:44;;;;;;;15.18;6.93;;;;;;;8.57;83.11;102063.72;5064567;28;20144;-59
2023/05/25 00:18:19;;;;;;;11.90;6.15;;;;;;;8.62;83.69;102061.88;5058470;28;20037;-58
2023/05/25 00:20:46;;;;;;;20.95;8.00;;;;;;;8.68;83.00;102062.66;5063274;28;20049;-58
2023/05/25 00:23:13;;;;;;;19.27;8.63;;;;;;;8.57;83.18;102058.44;5062775;28;20131;-58
2023/05/25 00:25:40;;;;;;;14.90;7.03;;;;;;;8.50;83.60;102056.81;5060077;28;20424;-58
2023/05/25 00:28:07;;;;;;;19.17;7.25;;;;;;;8.56;83.92;102059.31;5067319;28;20368;-59
2023/05/25 00:30:33;;;;;;;15.55;7.07;;;;;;;8.53;83.73;102051.47;5057220;28;20057;-57
2023/05/25 00:33:00;;;;;;;19.63;8.05;;;;;;;8.55;83.70;102057.59;5061256;28;20397;-58
2023/05/25 00:35:27;;;;;;;17.90;7.35;;;;;;;8.47;83.50;102056.84;5062380;28;20468;-59
2023/05/25 00:37:54;;;;;;;15.48;6.72;;;;;;;8.43;84.10;102058.69;5067502;28;20118;-58
2023/05/25 00:40:21;;;;;;;18.58;7.75;;;;;;;8.32;83.81;102057.06;5068214;28;20504;-59
2023/05/25 00:42:47;;;;;;;18.52;7.50;;;;;;;8.48;84.35;102058.59;5066698;28;20129;-57
2023/05/25 00:45:15;;;;;;;21.83;7.82;;;;;;;8.45;84.33;102058.63;5071552;28;20391;-57
2023/05/25 00:47:43;;;;;;;16.33;7.45;;;;;;;8.40;84.73;102056.06;5065127;28;20154;-58
2023/05/25 00:50:16;;;;;;;17.92;7.60;;;;;;;8.46;84.71;102055.09;5064963;28;20044;-59
2023/05/25 00:52:42;;;;;;;19.75;7.75;;;;;;;8.38;84.54;102049.06;5063186;28;20475;-58
2023/05/25 00:55:13;;;;;;;14.48;7.45;;;;;;;8.34;84.48;102055.28;5064454;28;20052;-58
2023/05/25 00:57:44;;;;;;;17.35;8.02;;;;;;;8.28;84.51;102059.72;5064771;28;20056;-58
2023/05/25 01:00:13;;;;;;;18.77;8.25;;;;;;;8.27;84.82;102058.00;5070045;28;20044;-58
2023/05/25 01:02:42;;;;;;;18.27;8.02;;;;;;;8.19;84.68;102052.00;5067721;28;20102;-58
2023/05/25 01:05:11;;;;;;;29.73;8.57;;;;;;;8.25;85.37;102054.53;5056228;28;20056;-58
2023/05/25 01:07:40;;;;;;;20.27;8.77;;;;;;;8.27;85.46;102047.47;5061833;28;20048;-59
2023/05/25 01:10:10;;;;;;;18.27;7.43;;;;;;;8.24;85.00;102047.50;5067638;28;20094;-59
2023/05/25 01:12:41;;;;;;;17.58;7.65;;;;;;;8.28;85.63;102046.56;5067440;28;20055;-58
2023/05/25 01:15:08;;;;;;;19.05;7.10;;;;;;;8.17;85.66;102045.84;5053305;28;20076;-58
2023/05/25 01:17:37;;;;;;;17.90;8.88;;;;;;;8.19;85.79;102051.09;5052100;28;20053;-59
2023/05/25 01:20:08;;;;;;;16.52;8.02;;;;;;;8.09;85.69;102056.53;5067650;28;20053;-59
2023/05/25 01:22:41;;;;;;;18.10;8.38;;;;;;;8.17;85.63;102061.66;5065573;28;20405;-59
2023/05/25 01:25:13;;;;;;;13.77;8.00;;;;;;;8.24;85.83;102060.69;5066891;28;20070;-58
2023/05/25 01:27:47;;;;;;;19.52;8.98;;;;;;;8.25;85.51;102062.44;5066263;28;20110;-58
2023/05/25 01:30:15;;;;;;;21.27;8.57;;;;;;;8.32;85.12;102067.59;5071805;28;20060;-59
2023/05/25 01:32:43;;;;;;;15.07;8.50;;;;;;;8.24;85.18;102059.81;5060612;28;20083;-60
2023/05/25 01:35:12;;;;;;;19.40;9.25;;;;;;;8.23;85.21;102061.56;5063308;28;20127;-58
2023/05/25 01:37:45;;;;;;;16.08;8.35;;;;;;;8.26;84.93;102064.16;5060537;28;20049;-58
2023/05/25 01:40:13;;;;;;;19.55;7.45;;;;;;;8.20;85.12;102066.88;5063631;28;20059;-58
2023/05/25 01:42:40;;;;;;;24.00;8.52;;;;;;;8.24;85.11;102060.69;5073522;28;20078;-58
2023/05/25 01:45:08;;;;;;;15.88;7.82;;;;;;;8.30;85.49;102058.84;5071535;28;20499;-58
2023/05/25 01:47:40;;;;;;;17.08;7.28;;;;;;;8.26;85.36;102058.88;5069294;28;20044;-58
2023/05/25 01:50:17;;;;;;;20.98;7.63;;;;;;;8.28;85.35;102067.63;5066273;28;20102;-58
2023/05/25 01:52:52;;;;;;;20.45;7.57;;;;;;;8.36;84.97;102064.88;5067627;28;20049;-57
2023/05/25 01:55:21;;;;;;;21.30;8.20;;;;;;;8.38;84.84;102067.50;5069054;28;20076;-58
2023/05/25 01:57:56;;;;;;;21.55;7.72;;;;;;;8.33;84.60;102069.34;5073147;28;20131;-58
2023/05/25 02:00:30;;;;;;;16.88;7.82;;;;;;;8.38;84.45;102056.97;5070256;28;20220;-58
2023/05/25 02:02:57;;;;;;;19.67;8.55;;;;;;;8.42;84.60;102061.31;5053280;28;20472;-58
2023/05/25 02:05:23;;;;;;;24.33;9.52;;;;;;;8.45;84.53;102054.25;5058045;28;20053;-58
2023/05/25 02:07:51;;;;;;;15.70;8.85;;;;;;;8.42;84.67;102053.41;5075384;28;20060;-58
2023/05/25 02:10:17;;;;;;;19.35;9.05;;;;;;;8.28;84.71;102051.81;5075567;28;20345;-58
2023/05/25 02:12:44;;;;;;;20.90;9.57;;;;;;;8.23;84.87;102051.03;5068918;28;20127;-58
2023/05/25 02:15:11;;;;;;;16.70;9.15;;;;;;;8.22;85.40;102045.78;5053199;28;20049;-58
2023/05/25 02:17:37;;;;;;;23.42;8.95;;;;;;;8.22;85.11;102041.41;5054711;28;20037;-58
2023/05/25 02:20:05;;;;;;;16.40;8.75;;;;;;;8.14;85.04;102045.91;5071267;28;20063;-58
2023/05/25 02:22:32;;;;;;;20.70;9.15;;;;;;;8.14;85.99;102043.28;5070691;28;20052;-59
2023/05/25 02:24:59;;;;;;;19.80;8.85;;;;;;;8.08;85.79;102046.88;5065889;28;20127;-58
2023/05/25 02:27:25;;;;;;;19.98;8.25;;;;;;;8.09;85.96;102045.09;5052530;28;20120;-58
2023/05/25 02:29:52;;;;;;;17.80;9.25;;;;;;;8.11;85.80;102053.88;5052479;28;20048;-58
2023/05/25 02:32:18;;;;;;;20.60;9.05;;;;;;;8.11;86.16;102056.50;5058935;28;20053;-59
2023/05/25 02:34:46;;;;;;;24.73;8.45;;;;;;;8.08;86.87;102059.16;5073525;28;20079;-58
2023/05/25 02:37:13;;;;;;;20.55;7.97;;;;;;;8.01;86.76;102062.75;5069950;28;20136;-58
2023/05/25 02:39:39;;;;;;;18.70;8.18;;;;;;;8.00;86.84;102055.78;5059487;28;20059;-58
2023/05/25 02:42:06;;;;;;;18.90;8.60;;;;;;;8.02;86.75;102054.84;5055151;28;20176;-59
2023/05/25 02:44:32;;;;;;;20.83;9.38;;;;;;;8.00;87.03;102051.38;5072814;28;20063;-59
2023/05/25 02:46:59;;;;;;;17.92;8.80;;;;;;;7.97;87.38;102055.81;5072788;28;20070;-58
2023/05/25 02:49:25;;;;;;;19.38;9.88;;;;;;;8.03;87.48;102055.75;5071540;28;20086;-58
2023/05/25 02:51:52;;;;;;;18.98;9.73;;;;;;;8.06;87.13;102051.28;5072424;28;20056;-58
2023/05/25 02:54:18;;;;;;;18.75;9.43;;;;;;;7.97;86.87;102046.16;5072049;28;20524;-58
2023/05/25 02:56:45;;;;;;;25.30;10.38;;;;;;;7.99;87.20;102048.75;5065795;28;20055;-58
2023/05/25 02:59:12;;;;;;;26.33;10.75;;;;;;;7.95;86.98;102057.59;5052074;28;20076;-58
2023/05/25 03:01:39;;;;;;;21.70;9.90;;;;;;;7.97;87.67;102053.19;5063073;28;20432;-59
2023/05/25 03:04:06;;;;;;;23.05;9.32;;;;;;;7.97;87.73;102050.56;5064345;28;20056;-58
2023/05/25 03:06:32;;;;;;;19.42;8.80;;;;;;;7.92;87.86;102047.13;5069582;28;20091;-59
2023/05/25 03:08:59;;;;;;;20.35;10.40;;;;;;;7.88;87.77;102047.16;5052232;28;20044;-58
2023/05/25 03:11:26;;;;;;;22.88;9.75;;;;;;;7.90;87.91;102061.16;5052374;28;20366;-58
2023/05/25 03:13:52;;;;;;;22.20;9.48;;;;;;;7.90;87.81;102060.31;5052476;28;20084;-58
2023/05/25 03:16:19;;;;;;;18.63;8.80;;;;;;;7.90;87.97;102065.56;5057660;28;20136;-59
2023/05/25 03:18:45;;;;;;;22.85;9.05;;;;;;;7.92;87.90;102073.44;5061569;28;20200;-58
2023/05/25 03:21:12;;;;;;;25.92;10.48;;;;;;;7.95;88.05;102073.41;5061481;28;20358;-58
2023/05/25 03:23:38;;;;;;;23.65;10.23;;;;;;;7.90;88.22;102071.69;5069998;28;20045;-58
2023/05/25 03:26:05;;;;;;;16.65;9.80;;;;;;;7.90;88.21;102081.34;5069827;28;20067;-59
2023/05/25 03:28:31;;;;;;;26.15;10.48;;;;;;;7.90;88.15;102081.34;5062134;28;20335;-58
2023/05/25 03:30:58;;;;;;;22.05;9.07;;;;;;;7.90;88.02;102082.22;5059675;28;20129;-58
2023/05/25 03:33:24;;;;;;;32.15;12.75;;;;;;;7.95;88.38;102068.13;5055750;28;20079;-58
2023/05/25 03:35:51;;;;;;;26.50;9.75;;;;;;;7.94;88.45;102074.28;5070293;28;20588;-58
2023/05/25 03:38:18;;;;;;;25.70;10.60;;;;;;;7.95;88.50;102078.66;5070471;28;20126;-58
2023/05/25 03:40:44;;;;;;;18.30;10.13;;;;;;;7.92;88.25;102083.97;5059940;28;20067;-58
2023/05/25 03:43:11;;;;;;;22.80;11.40;;;;;;;8.03;88.13;102079.44;5058580;28;20076;-58
2023/05/25 03:45:37;;;;;;;25.45;11.27;;;;;;;7.98;88.01;102084.75;5062264;28;20407;-58
2023/05/25 03:48:05;;;;;;;23.17;10.38;;;;;;;8.01;88.58;102078.56;5075895;28;20053;-59
2023/05/25 03:50:33;;;;;;;23.52;9.27;;;;;;;8.06;88.11;102087.28;5077397;28;20052;-59
2023/05/25 03:52:59;;;;;;;29.50;11.02;;;;;;;8.09;88.28;102087.22;5065117;28;20045;-59
2023/05/25 03:55:27;;;;;;;24.08;9.88;;;;;;;8.15;88.16;102088.91;5067740;28;20049;-58
2023/05/25 03:57:53;;;;;;;24.13;10.73;;;;;;;8.17;87.87;102095.88;5071722;28;20041;-58
2023/05/25 04:00:20;;;;;;;19.52;10.10;;;;;;;8.15;88.27;102092.41;5075689;28;20079;-58
2023/05/25 04:02:46;;;;;;;25.05;11.05;;;;;;;8.17;88.48;102095.03;5055659;28;20053;-58
2023/05/25 04:05:13;;;;;;;27.92;12.70;;;;;;;8.16;88.31;102104.72;5071396;28;20053;-58
2023/05/25 04:07:40;;;;;;;25.95;11.73;;;;;;;8.24;88.86;102102.84;5065375;28;20080;-58
2023/05/25 04:10:07;;;;;;;24.10;10.98;;;;;;;8.28;88.01;102104.50;5074814;28;20610;-58
2023/05/25 04:12:35;;;;;;;27.20;10.98;;;;;;;8.24;88.36;102102.84;5078080;28;20051;-59
2023/05/25 04:15:03;;;;;;;25.05;10.60;;;;;;;8.25;88.01;102104.59;5068323;28;20084;-58
2023/05/25 04:17:29;;;;;;;27.17;10.82;;;;;;;8.26;88.04;102101.03;5061598;28;20067;-58
2023/05/25 04:19:56;;;;;;;31.00;11.73;;;;;;;8.27;88.00;102097.53;5056803;28;20130;-58
2023/05/25 04:22:22;;;;;;;26.15;11.30;;;;;;;8.36;88.03;102100.91;5066231;28;20045;-58
2023/05/25 04:24:49;;;;;;;26.30;11.70;;;;;;;8.33;88.10;102100.97;5062259;28;20052;-58
2023/05/25 04:27:16;;;;;;;32.47;12.68;;;;;;;8.35;88.41;102099.16;5068876;28;20044;-58
2023/05/25 04:29:42;;;;;;;23.50;11.13;;;;;;;8.37;88.58;102107.91;5055571;28;20049;-59
2023/05/25 04:32:09;;;;;;;33.08;12.38;;;;;;;8.47;88.06;102111.31;5063302;28;20044;-58
2023/05/25 04:34:36;;;;;;;22.52;10.40;;;;;;;8.50;87.78;102116.53;5058526;28;20059;-58
2023/05/25 04:37:04;;;;;;;31.60;11.65;;;;;;;8.50;87.58;102120.06;5068182;28;20036;-59
2023/05/25 04:39:31;;;;;;;24.83;11.10;;;;;;;8.59;87.50;102121.69;5069929;28;20440;-58
2023/05/25 04:42:00;;;;;;;26.35;11.43;;;;;;;8.60;87.57;102132.19;5070287;28;20131;-58
2023/05/25 04:44:28;;;;;;;30.30;12.43;;;;;;;8.65;86.96;102124.22;5068614;28;20049;-58
2023/05/25 04:46:55;;;;;;;26.05;11.38;;;;;;;8.69;86.89;102130.31;5053942;28;20134;-58
2023/05/25 04:49:22;;;;;;;31.50;13.00;;;;;;;8.72;86.85;102135.53;5063775;28;20047;-58
2023/05/25 04:51:49;;;;;;;28.60;11.50;;;;;;;8.70;86.63;102137.34;5061611;28;20083;-59
2023/05/25 04:54:15;;;;;;;32.58;12.20;;;;;;;8.69;86.93;102132.94;5068302;28;20160;-58
2023/05/25 04:56:42;;;;;;;29.60;12.95;;;;;;;8.67;86.24;102135.59;5071328;28;20059;-59
2023/05/25 04:59:09;;;;;;;30.90;12.98;;;;;;;8.68;86.81;102128.56;5066704;28;20041;-58
2023/05/25 05:01:39;;;;;;;24.88;11.25;;;;;;;8.73;87.23;102119.69;5058294;28;20044;-58
2023/05/25 05:04:07;;;;;;;26.23;12.33;;;;;;;8.75;86.59;102117.03;5068366;28;20433;-59
2023/05/25 05:06:35;;;;;;;25.40;12.65;;;;;;;8.80;87.02;102125.75;5056513;28;20110;-58
2023/05/25 05:09:02;;;;;;;27.55;12.70;;;;;;;8.84;86.79;102118.66;5057946;28;20053;-59
2023/05/25 05:11:28;;;;;;;29.98;13.85;;;;;;;8.89;86.68;102117.69;5057549;28;20141;-59
2023/05/25 05:13:55;;;;;;;28.83;12.73;;;;;;;8.97;86.76;102115.78;5064406;28;20446;-58
2023/05/25 05:16:22;;;;;;;30.17;13.02;;;;;;;9.04;86.92;102111.28;5071361;28;20460;-58
2023/05/25 05:18:49;;;;;;;30.90;12.15;;;;;;;9.12;86.86;102132.22;5071130;28;20075;-58
2023/05/25 05:21:16;;;;;;;31.88;14.10;;;;;;;9.23;86.58;102122.34;5071318;28;20091;-58
2023/05/25 05:23:42;;;;;;;26.60;12.23;;;;;;;9.30;86.30;102117.81;5072740;28;20060;-58
2023/05/25 05:26:10;;;;;;;29.17;12.25;;;;;;;9.35;85.93;102132.69;5063121;28;20049;-58
2023/05/25 05:28:37;;;;;;;40.83;14.15;;;;;;;9.46;85.81;102128.97;5053442;28;20453;-59
2023/05/25 05:31:03;;;;;;;34.65;14.75;;;;;;;9.48;85.42;102132.44;5064645;28;20045;-59
2023/05/25 05:33:30;;;;;;;29.50;12.27;;;;;;;9.48;85.04;102143.91;5060858;28;20128;-58
2023/05/25 05:35:57;;;;;;;29.10;13.23;;;;;;;9.47;84.81;102131.59;5072817;28;20058;-58
2023/05/25 05:38:23;;;;;;;23.05;13.35;;;;;;;9.59;85.21;102130.47;5068266;28;20143;-59
2023/05/25 05:40:50;;;;;;;31.75;13.38;;;;;;;9.62;84.59;102135.69;5067443;28;20074;-59
2023/05/25 05:43:16;;;;;;;31.88;13.07;;;;;;;9.71;84.46;102135.53;5072292;28;20083;-59
2023/05/25 05:45:43;;;;;;;23.90;13.93;;;;;;;9.79;84.60;102143.31;5061241;28;20128;-58
2023/05/25 05:48:10;;;;;;;26.05;11.98;;;;;;;9.87;85.06;102151.94;5070826;28;20153;-58
2023/05/25 05:50:37;;;;;;;23.60;13.55;;;;;;;9.92;83.22;102150.06;5071202;28;20055;-58
2023/05/25 05:53:08;;;;;;;32.42;13.65;;;;;;;9.95;84.00;102143.84;5072118;28;20048;-58
2023/05/25 05:55:36;;;;;;;23.15;12.75;;;;;;;10.02;83.58;102150.75;5063759;28;20106;-57
2023/05/25 05:58:02;;;;;;;27.17;12.68;;;;;;;10.03;83.10;102154.25;5071009;28;20048;-59
2023/05/25 06:00:29;;;;;;;28.00;12.43;;;;;;;10.10;83.84;102158.47;5066362;28;20135;-59
2023/05/25 06:02:55;;;;;;;32.13;13.40;;;;;;;10.30;83.58;102155.44;5056808;28;20112;-58
2023/05/25 06:05:22;;;;;;;32.88;13.82;;;;;;;10.29;82.83;102157.19;5069774;28;20515;-58
2023/05/25 06:07:49;;;;;;;41.67;13.43;;;;;;;10.43;82.75;102161.34;5065581;28;20128;-58
2023/05/25 06:10:16;;;;;;;29.75;12.77;;;;;;;10.51;82.12;102158.50;5067992;28;20056;-58
2023/05/25 06:12:43;;;;;;;27.42;13.88;;;;;;;10.50;81.86;102162.09;5067294;28;20098;-58
2023/05/25 06:15:10;;;;;;;35.40;14.20;;;;;;;10.66;81.93;102163.47;5068677;28;20373;-59
2023/05/25 06:17:36;;;;;;;30.75;13.00;;;;;;;10.66;81.72;102163.47;5070030;28;20104;-58
2023/05/25 06:20:05;;;;;;;30.77;13.40;;;;;;;10.80;81.52;102171.91;5070737;28;20052;-59
2023/05/25 06:22:32;;;;;;;33.22;13.63;;;;;;;10.87;81.37;102172.66;5060768;28;20102;-59
2023/05/25 06:24:58;;;;;;;34.80;14.23;;;;;;;10.96;80.73;102182.13;5058416;28;20041;-59
2023/05/25 06:27:26;;;;;;;27.67;13.85;;;;;;;10.99;80.83;102171.50;5066025;28;20051;-59
2023/05/25 06:29:52;;;;;;;29.42;14.25;;;;;;;11.00;81.21;102176.75;5068586;28;20048;-58
2023/05/25 06:32:19;;;;;;;32.42;14.13;;;;;;;11.23;80.33;102174.41;5063467;28;20056;-58
2023/05/25 06:34:45;;;;;;;31.42;13.55;;;;;;;11.25;80.08;102177.91;5059253;28;20044;-59
2023/05/25 06:37:13;;;;;;;31.30;13.40;;;;;;;11.56;79.70;102184.13;5058828;28;20049;-58
2023/05/25 06:39:41;;;;;;;29.92;13.65;;;;;;;11.38;79.40;102184.63;5061283;28;20080;-58
2023/05/25 06:42:11;;;;;;;28.70;13.57;;;;;;;11.51;79.53;102175.44;5068083;28;20132;-58
2023/05/25 06:44:38;;;;;;;36.08;15.60;;;;;;;11.62;79.20;102182.22;5061991;28;20048;-56
2023/05/25 06:47:05;;;;;;;30.33;13.50;;;;;;;11.71;78.32;102181.97;5055173;28;20123;-58
2023/05/25 06:49:31;;;;;;;39.13;15.25;;;;;;;11.75;78.63;102173.91;5059527;28;20044;-56
2023/05/25 06:51:58;;;;;;;25.45;12.73;;;;;;;11.97;78.40;102180.41;5054811;28;20089;-56
2023/05/25 06:54:25;;;;;;;35.47;12.90;;;;;;;11.98;77.60;102179.47;5064824;28;20052;-56
2023/05/25 06:56:52;;;;;;;24.10;13.30;;;;;;;11.94;77.53;102184.84;5059820;28;20060;-56
2023/05/25 06:59:18;;;;;;;26.02;12.05;;;;;;;12.26;76.94;102177.75;5066935;28;20052;-56
2023/05/25 07:01:46;;;;;;;27.52;12.13;;;;;;;12.41;76.37;102178.22;5066179;28;20051;-56
2023/05/25 07:04:13;;;;;;;30.92;12.70;;;;;;;12.54;75.33;102191.94;5075369;28;20045;-55
2023/05/25 07:06:39;;;;;;;29.20;12.38;;;;;;;12.62;75.67;102188.16;5071372;28;20078;-57
2023/05/25 07:09:06;;;;;;;29.83;12.57;;;;;;;12.90;74.59;102181.97;5070341;28;20086;-60
2023/05/25 07:11:32;;;;;;;35.45;11.90;;;;;;;12.90;74.02;102179.31;5070341;28;20135;-59
2023/05/25 07:13:59;;;;;;;29.92;13.98;;;;;;;12.97;74.36;102183.47;5071465;28;20048;-57
2023/05/25 07:16:26;;;;;;;29.38;11.85;;;;;;;12.98;74.12;102189.66;5073420;28;20056;-57
2023/05/25 07:18:52;;;;;;;28.73;12.90;;;;;;;13.21;73.25;102180.94;5065549;28;20048;-56
2023/05/25 07:21:19;;;;;;;32.67;11.90;;;;;;;13.35;72.35;102177.84;5066164;28;20062;-57
2023/05/25 07:23:46;;;;;;;28.17;12.27;;;;;;;13.55;71.52;102179.78;5069797;28;20112;-59
2023/05/25 07:26:12;;;;;;;27.83;10.77;;;;;;;13.51;72.02;102186.16;5067388;28;20051;-57
2023/05/25 07:28:39;;;;;;;25.90;12.40;;;;;;;13.75;71.03;102179.94;5081996;28;20041;-57
2023/05/25 07:31:05;;;;;;;28.92;12.95;;;;;;;14.01;69.98;102194.09;5070198;28;20051;-57
2023/05/25 07:33:32;;;;;;;29.25;10.55;;;;;;;14.05;69.21;102185.06;5064566;28;20083;-57
2023/05/25 07:35:58;;;;;;;20.20;10.00;;;;;;;14.23;68.17;102177.31;5065476;28;20064;-58
2023/05/25 07:38:25;;;;;;;27.75;11.40;;;;;;;14.43;66.27;102189.81;5065800;28;20051;-56
2023/05/25 07:40:51;;;;;;;25.95;10.85;;;;;;;14.52;65.96;102184.16;5069170;28;20080;-56
2023/05/25 07:43:18;;;;;;;26.30;10.38;;;;;;;14.57;65.62;102191.97;5067294;28;20048;-56
2023/05/25 07:45:44;;;;;;;20.52;9.13;;;;;;;14.60;65.29;102189.22;5064127;28;20048;-58
2023/05/25 07:48:11;;;;;;;26.52;9.73;;;;;;;14.59;65.50;102191.00;5070555;28;20044;-57
2023/05/25 07:50:38;;;;;;;32.33;9.80;;;;;;;14.76;65.75;102187.69;5068685;28;20084;-57
2023/05/25 07:53:04;;;;;;;28.42;10.57;;;;;;;14.71;65.73;102194.94;5070164;28;20075;-57
2023/05/25 07:55:31;;;;;;;29.48;11.20;;;;;;;14.79;64.75;102197.31;5069330;28;20047;-56
2023/05/25 07:57:57;;;;;;;28.92;9.82;;;;;;;14.73;65.24;102197.56;5068572;28;20132;-57
2023/05/25 08:00:24;;;;;;;23.55;9.20;;;;;;;14.76;64.87;102193.00;5064973;28;20049;-58
2023/05/25 08:02:50;;;;;;;22.88;10.32;;;;;;;14.82;64.68;102200.72;5066810;28;20155;-56
2023/05/25 08:05:17;;;;;;;22.83;11.25;;;;;;;14.71;64.94;102194.09;5066421;28;20055;-55
2023/05/25 08:07:45;;;;;;;30.95;10.65;;;;;;;14.91;63.93;102195.94;5065866;28;20541;-59
2023/05/25 08:10:12;;;;;;;24.92;10.52;;;;;;;14.96;64.92;102200.16;5067246;28;20056;-54
2023/05/25 08:12:38;;;;;;;26.75;10.93;;;;;;;15.22;63.56;102207.06;5066387;28;20048;-56
2023/05/25 08:15:16;;;;;;;28.38;11.48;;;;;;;15.20;64.61;102203.59;5065433;28;20063;-55
2023/05/25 08:17:42;;;;;;;33.53;13.15;;;;;;;15.48;63.42;102202.44;5061990;28;20070;-57
2023/05/25 08:20:10;;;;;;;21.05;9.05;;;;;;;15.83;62.48;102200.03;5067737;28;20047;-56
2023/05/25 08:22:37;;;;;;;24.42;9.23;;;;;;;15.78;60.35;102204.72;5064252;28;20056;-57
2023/05/25 08:25:04;;;;;;;26.63;11.77;;;;;;;15.26;62.96;102212.25;5070482;28;20052;-57
2023/05/25 08:27:31;;;;;;;26.92;10.73;;;;;;;15.40;63.82;102208.06;5067447;28;20131;-57
2023/05/25 08:30:02;;;;;;;23.92;10.30;;;;;;;15.78;61.02;102199.38;5063307;28;20067;-56
2023/05/25 08:32:29;;;;;;;30.38;11.27;;;;;;;15.36;63.09;102200.28;5067190;28;20044;-57
2023/05/25 08:34:56;;;;;;;29.65;11.48;;;;;;;15.80;62.45;102200.16;5067636;28;20484;-57
2023/05/25 08:37:23;;;;;;;25.17;9.63;;;;;;;15.71;60.37;102208.53;5066736;28;20041;-57
2023/05/25 08:39:50;;;;;;;21.50;10.60;;;;;;;15.68;62.01;102203.34;5057732;28;20064;-57
2023/05/25 08:42:17;;;;;;;30.63;12.70;;;;;;;15.91;62.24;102199.69;5069605;28;20068;-56
2023/05/25 08:44:44;;;;;;;23.67;9.80;;;;;;;15.73;59.64;102196.88;5056271;28;20052;-58
2023/05/25 08:47:12;;;;;;;25.70;8.52;;;;;;;15.70;58.65;102212.16;5066762;28;20132;-56
2023/05/25 08:49:40;;;;;;;21.58;9.75;;;;;;;15.68;60.45;102198.03;5059543;28;20165;-56
2023/05/25 08:52:13;;;;;;;29.15;10.27;;;;;;;15.50;60.32;102203.22;5061209;28;20459;-58
2023/05/25 08:54:43;;;;;;;21.55;9.07;;;;;;;15.91;58.81;102199.69;5065962;28;20048;-58
2023/05/25 08:57:19;;;;;;;22.13;10.48;;;;;;;15.56;60.60;102213.63;5063734;28;20048;-56
2023/05/25 09:00:09;;;;;;;23.23;9.60;;;;;;;15.81;61.66;102204.56;5067054;28;20049;-56
2023/05/25 09:02:56;;;;;;;20.10;10.37;;;;;;;15.83;61.76;102208.03;5061920;28;20064;-58
2023/05/25 09:05:24;;;;;;;25.33;9.57;;;;;;;16.07;60.86;102214.06;5070351;28;20357;-57
2023/05/25 09:07:53;;;;;;;21.85;10.40;;;;;;;16.00;60.37;102217.06;5066205;28;20057;-56
2023/05/25 09:10:21;;;;;;;23.45;9.75;;;;;;;16.20;59.83;102222.38;5060861;28;20045;-57
2023/05/25 09:12:50;;;;;;;20.10;9.32;;;;;;;16.12;60.08;102228.03;5063069;28;20048;-57
2023/05/25 09:15:17;;;;;;;23.17;11.45;;;;;;;16.17;60.36;102224.28;5066561;28;20052;-57
2023/05/25 09:17:44;;;;;;;23.52;10.20;;;;;;;16.28;60.57;102222.00;5075302;28;20052;-57
2023/05/25 09:20:14;;;;;;;28.98;10.90;;;;;;;16.19;61.54;102225.97;5063194;28;20102;-58
2023/05/25 09:22:41;;;;;;;26.95;10.35;;;;;;;16.12;60.67;102220.03;5057278;28;20056;-57
2023/05/25 09:25:09;;;;;;;15.38;10.13;;;;;;;16.24;60.62;102218.59;5066045;28;20106;-55
2023/05/25 09:27:37;;;;;;;30.85;11.05;;;;;;;16.42;60.30;102232.03;5056080;28;20079;-55
2023/05/25 09:30:05;;;;;;;24.83;12.88;;;;;;;16.15;62.29;102227.06;5052800;28;20138;-57
2023/05/25 09:32:31;;;;;;;21.88;10.55;;;;;;;16.33;60.28;102238.69;5060444;28;20053;-57
2023/05/25 09:35:09;;;;;;;19.23;9.95;;;;;;;16.37;60.49;102229.56;5064148;28;20044;-57
2023/05/25 09:37:36;;;;;;;26.88;10.10;;;;;;;16.49;59.60;102229.00;5055734;28;20140;-57
2023/05/25 09:40:04;;;;;;;24.50;9.98;;;;;;;15.86;60.12;102239.88;5058710;28;20048;-54
2023/05/25 09:42:32;;;;;;;16.52;9.90;;;;;;;15.89;59.46;102239.75;5077743;28;20053;-56
2023/05/25 09:44:59;;;;;;;24.73;9.40;;;;;;;16.16;59.36;102236.78;5063188;28;20044;-56
2023/05/25 09:47:26;;;;;;;23.98;9.98;;;;;;;16.33;58.92;102236.88;5061551;28;20067;-56
2023/05/25 09:49:54;;;;;;;16.75;10.43;;;;;;;16.32;59.76;102232.47;5065751;28;20037;-56
2023/05/25 09:52:21;;;;;;;17.08;9.68;;;;;;;15.93;61.05;102236.00;5055614;28;20147;-58
2023/05/25 09:54:49;;;;;;;22.42;9.85;;;;;;;16.57;58.56;102243.78;5062991;28;20080;-55
2023/05/25 09:57:15;;;;;;;22.10;9.95;;;;;;;16.84;56.86;102236.28;5058793;28;20068;-55
2023/05/25 09:59:44;;;;;;;28.63;11.02;;;;;;;16.84;56.74;102244.28;5065633;28;20512;-56
2023/05/25 10:02:11;;;;;;;15.27;9.00;;;;;;;16.59;57.30;102242.78;5060743;28;20098;-58
2023/05/25 10:04:38;;;;;;;22.88;10.52;;;;;;;17.04;56.86;102246.00;5058430;28;20472;-55
2023/05/25 10:07:05;;;;;;;18.63;9.20;;;;;;;17.01;57.42;102241.66;5053053;28;20408;-55
2023/05/25 10:09:39;;;;;;;21.63;9.65;;;;;;;17.15;56.30;102243.66;5056980;28;20487;-58
2023/05/25 10:12:07;;;;;;;21.00;8.80;;;;;;;17.21;56.41;102237.13;5053345;28;20477;-55
2023/05/25 10:14:37;;;;;;;20.38;9.18;;;;;;;17.32;55.97;102250.84;5060866;28;20079;-56
2023/05/25 10:17:07;;;;;;;22.65;8.43;;;;;;;16.57;57.01;102241.13;5072447;28;20585;-56
2023/05/25 10:19:44;;;;;;;27.25;8.80;;;;;;;16.89;55.38;102244.97;5065798;28;20047;-57
2023/05/25 10:22:25;;;;;;;23.52;8.45;;;;;;;16.62;55.93;102244.44;5065016;28;20105;-56
2023/05/25 10:24:58;;;;;;;16.15;8.27;;;;;;;17.15;55.52;102246.34;5066884;28;20048;-56
2023/05/25 10:27:38;;;;;;;20.52;9.48;;;;;;;16.03;57.75;102246.28;5065272;28;20045;-55
2023/05/25 10:30:06;;;;;;;17.67;8.10;;;;;;;16.27;57.04;102239.81;5070074;28;20058;-57
2023/05/25 10:32:35;;;;;;;21.45;7.95;;;;;;;16.10;58.20;102231.72;5053174;28;20393;-56
2023/05/25 10:35:04;;;;;;;17.15;8.43;;;;;;;16.45;57.00;102240.75;5066832;28;20432;-55
2023/05/25 10:37:33;;;;;;;16.63;8.27;;;;;;;16.58;56.96;102237.53;5067853;28;20086;-57
2023/05/25 10:40:01;;;;;;;16.50;8.48;;;;;;;17.10;55.46;102244.81;5069787;28;20147;-56
2023/05/25 10:42:29;;;;;;;12.98;7.28;;;;;;;17.46;53.22;102242.13;5060532;28;20131;-56
2023/05/25 10:44:57;;;;;;;13.98;8.15;;;;;;;18.28;51.32;102232.50;5055913;28;20040;-57
2023/05/25 10:47:24;;;;;;;18.48;7.07;;;;;;;18.75;49.47;102239.69;5060089;28;20072;-56
2023/05/25 10:49:52;;;;;;;20.08;6.53;;;;;;;19.52;47.93;102232.56;5062609;28;20492;-57
2023/05/25 10:52:19;;;;;;;13.32;6.72;;;;;;;19.10;48.02;102239.50;5055500;28;20141;-57
2023/05/25 10:54:47;;;;;;;20.25;5.88;;;;;;;19.35;45.02;102232.72;5067049;28;20045;-57
2023/05/25 10:57:18;;;;;;;10.55;4.50;;;;;;;20.43;40.81;102232.31;5067578;28;20382;-57
2023/05/25 10:59:54;;;;;;;13.30;4.20;;;;;;;22.12;38.47;102224.63;5058762;28;20106;-57
2023/05/25 11:02:23;;;;;;;21.05;6.75;;;;;;;22.54;39.50;102225.19;5062692;28;20621;-56
2023/05/25 11:05:25;;;;;;;12.98;6.53;;;;;;;21.94;40.82;102242.94;5064237;28;20476;-56
2023/05/25 11:07:59;;;;;;;16.02;6.30;;;;;;;20.07;42.96;102235.53;5063858;28;20053;-55
2023/05/25 11:10:47;;;;;;;16.10;7.70;;;;;;;21.98;41.04;102236.38;5063095;28;20080;-59
2023/05/25 11:13:33;;;;;;;14.95;6.07;;;;;;;23.47;37.43;102232.63;5061151;28;20082;-56
2023/05/25 11:16:28;;;;;;;12.15;6.47;;;;;;;23.43;37.58;102229.31;5059800;28;20453;-57
2023/05/25 11:18:57;;;;;;;12.02;4.95;;;;;;;23.28;35.87;102234.06;5059421;28;20131;-57
2023/05/25 11:21:27;;;;;;;17.42;5.85;;;;;;;24.49;35.42;102222.78;5056761;28;20040;-56